Time;durP1;ratioP1;P1;durP2;ratioP2;P2;SDS_P1;SDS_P2;PMS_P1;PMS_P2;Temp;Humidity;BMP_temperature;BMP_pressure;BME280_temperature;BME280_humidity;BME280_pressure;Samples;Min_cycle;Max_cycle;Signal;HPM_P1;HPM_P2
2023/04/13 00:00:28;;;;;;;1.00;0.50;;;;;;;6.24;84.95;97600.75;4999943;28;20276;-58
2023/04/13 00:02:54;;;;;;;2.13;0.47;;;;;;;6.20;85.74;97589.03;4996293;28;20232;-57
2023/04/13 00:05:22;;;;;;;1.27;0.43;;;;;;;6.26;84.24;97587.63;4997835;28;20240;-59
2023/04/13 00:07:50;;;;;;;3.33;0.67;;;;;;;6.24;84.88;97574.84;4996124;28;20238;-59
2023/04/13 00:10:19;;;;;;;2.50;0.60;;;;;;;6.16;85.34;97579.94;4999754;28;20244;-58
2023/04/13 00:12:47;;;;;;;3.90;0.57;;;;;;;6.38;80.29;97580.41;4997362;28;20239;-58
2023/04/13 00:15:14;;;;;;;4.30;0.37;;;;;;;6.56;78.47;97577.81;5001284;28;20262;-58
2023/04/13 00:17:41;;;;;;;1.70;0.53;;;;;;;6.64;76.60;97576.09;4998340;28;20245;-60
2023/04/13 00:20:11;;;;;;;5.13;0.90;;;;;;;6.61;78.31;97580.78;4983520;28;20326;-57
2023/04/13 00:22:38;;;;;;;0.97;0.50;;;;;;;6.50;82.59;97569.69;5001081;28;20313;-58
2023/04/13 00:25:07;;;;;;;1.50;0.53;;;;;;;6.52;83.25;97584.28;4998013;28;20255;-54
2023/04/13 00:27:37;;;;;;;5.27;0.67;;;;;;;6.43;83.77;97578.19;4999740;28;20703;-59
2023/04/13 00:30:06;;;;;;;2.43;0.53;;;;;;;6.52;82.92;97572.09;4984082;28;20241;-58
2023/04/13 00:32:32;;;;;;;1.10;0.40;;;;;;;6.45;84.94;97573.66;4990945;28;20248;-59
2023/04/13 00:34:59;;;;;;;1.63;0.40;;;;;;;6.37;87.52;97569.25;4970586;28;20243;-58
2023/04/13 00:37:29;;;;;;;5.33;0.50;;;;;;;6.41;86.69;97577.53;4991954;28;20228;-58
2023/04/13 00:39:56;;;;;;;0.77;0.50;;;;;;;6.35;87.89;97573.78;4986749;28;20311;-59
2023/04/13 00:42:25;;;;;;;1.27;0.40;;;;;;;6.34;89.48;97575.56;4990229;28;20751;-59
2023/04/13 00:44:54;;;;;;;5.70;1.20;;;;;;;6.42;88.60;97579.16;4976595;28;20293;-58
2023/04/13 00:47:27;;;;;;;3.23;0.60;;;;;;;6.29;89.59;97585.56;4980481;28;20228;-58
2023/04/13 00:49:55;;;;;;;2.73;0.40;;;;;;;6.27;91.80;97587.50;4986002;28;20229;-59
2023/04/13 00:52:22;;;;;;;1.53;0.60;;;;;;;6.24;89.91;97568.81;4972910;28;20240;-59
2023/04/13 00:54:50;;;;;;;1.00;0.40;;;;;;;6.29;90.03;97588.16;4972486;28;20240;-59
2023/04/13 00:57:18;;;;;;;4.03;0.53;;;;;;;6.41;89.29;97585.31;4966809;28;20369;-59
2023/04/13 00:59:48;;;;;;;2.57;0.50;;;;;;;6.18;89.92;97575.44;4988154;28;21158;-57
2023/04/13 01:02:14;;;;;;;4.07;0.70;;;;;;;6.17;90.70;97577.19;4988252;28;20237;-57
2023/04/13 01:04:41;;;;;;;1.50;0.60;;;;;;;6.21;87.27;97567.34;4989002;28;20290;-55
2023/04/13 01:07:15;;;;;;;0.73;0.50;;;;;;;6.19;88.46;97572.66;4968687;28;20239;-54
2023/04/13 01:09:48;;;;;;;1.03;0.33;;;;;;;6.29;87.83;97575.19;4983996;28;20305;-56
2023/04/13 01:12:21;;;;;;;1.70;0.50;;;;;;;6.22;87.58;97581.94;4985319;28;20299;-58
2023/04/13 01:14:58;;;;;;;3.93;0.50;;;;;;;6.29;85.42;97582.97;4988269;28;20224;-56
2023/04/13 01:17:29;;;;;;;3.00;0.77;;;;;;;6.22;86.29;97570.75;4974094;28;20236;-57
2023/04/13 01:20:00;;;;;;;3.90;0.70;;;;;;;6.14;87.02;97576.69;4971894;28;20810;-58
2023/04/13 01:22:32;;;;;;;3.40;0.70;;;;;;;6.14;87.14;97574.88;4987259;28;20240;-55
2023/04/13 01:25:21;;;;;;;4.10;0.57;;;;;;;6.15;86.19;97565.34;4974162;28;20714;-56
2023/04/13 01:27:53;;;;;;;5.87;0.90;;;;;;;6.18;87.06;97580.59;4974221;28;20228;-57
2023/04/13 01:30:22;;;;;;;6.13;0.80;;;;;;;6.17;83.25;97566.03;4971826;28;20245;-57
2023/04/13 01:32:51;;;;;;;1.27;0.50;;;;;;;6.08;84.70;97572.88;4976032;28;20233;-54
2023/04/13 01:35:19;;;;;;;2.37;0.50;;;;;;;6.12;83.94;97561.28;4973543;28;20715;-57
2023/04/13 01:37:47;;;;;;;3.73;0.60;;;;;;;6.10;83.69;97565.78;4971918;28;20910;-54
2023/04/13 01:40:14;;;;;;;3.30;0.60;;;;;;;6.03;84.67;97556.97;4971219;28;20247;-56
2023/04/13 01:42:50;;;;;;;1.37;0.50;;;;;;;6.02;84.33;97551.00;4976623;28;20327;-54
2023/04/13 01:45:19;;;;;;;3.67;0.60;;;;;;;6.07;84.29;97558.31;4970116;28;20311;-55
2023/04/13 01:47:54;;;;;;;3.03;0.60;;;;;;;5.97;84.84;97557.53;4980310;28;20224;-56
2023/04/13 01:50:47;;;;;;;5.03;0.80;;;;;;;5.87;86.42;97563.59;4980958;28;20322;-54
2023/04/13 01:53:30;;;;;;;3.50;0.50;;;;;;;5.82;84.18;97552.06;4972096;28;20689;-57
2023/04/13 01:55:59;;;;;;;2.67;0.73;;;;;;;5.88;85.08;97554.06;4988974;28;20262;-55
2023/04/13 01:58:28;;;;;;;2.93;0.70;;;;;;;5.95;83.33;97564.63;4991895;28;20707;-54
2023/04/13 02:00:59;;;;;;;2.23;0.87;;;;;;;5.85;84.52;97575.06;4977162;28;20235;-58
2023/04/13 02:03:27;;;;;;;2.63;0.50;;;;;;;5.89;82.41;97566.06;4980156;28;20253;-55
2023/04/13 02:05:55;;;;;;;4.00;0.70;;;;;;;5.90;84.00;97573.66;4979256;28;20221;-57
2023/04/13 02:08:22;;;;;;;2.47;0.90;;;;;;;5.86;81.62;97569.75;4976569;28;20372;-56
2023/04/13 02:10:49;;;;;;;3.57;0.67;;;;;;;5.81;82.05;97571.97;4978416;28;20255;-56
2023/04/13 02:13:19;;;;;;;5.00;0.80;;;;;;;5.80;82.59;97570.34;4992070;28;20725;-57
2023/04/13 02:15:47;;;;;;;6.40;0.80;;;;;;;5.95;80.16;97572.41;4979950;28;20633;-54
2023/04/13 02:18:13;;;;;;;3.43;0.60;;;;;;;6.07;77.05;97586.00;4989456;28;20278;-57
2023/04/13 02:20:44;;;;;;;2.63;0.77;;;;;;;6.02;78.06;97561.34;4976812;28;20228;-55
2023/04/13 02:23:13;;;;;;;7.43;0.70;;;;;;;5.95;79.98;97575.00;4975637;28;20276;-54
2023/04/13 02:25:41;;;;;;;1.73;0.60;;;;;;;5.85;79.75;97582.84;4992201;28;20728;-57
2023/04/13 02:28:08;;;;;;;1.73;0.63;;;;;;;5.79;79.66;97573.91;4974023;28;20236;-54
2023/04/13 02:30:36;;;;;;;5.40;0.73;;;;;;;5.84;79.46;97579.44;4974134;28;20324;-57
2023/04/13 02:33:06;;;;;;;5.73;1.00;;;;;;;5.97;79.12;97568.72;4973959;28;20232;-56
2023/04/13 02:35:32;;;;;;;3.93;0.83;;;;;;;5.86;80.77;97556.00;4978584;28;20224;-56
2023/04/13 02:38:02;;;;;;;7.70;1.27;;;;;;;5.83;80.34;97585.56;4974079;28;20230;-57
2023/04/13 02:40:29;;;;;;;2.87;0.97;;;;;;;5.96;77.88;97572.28;4976191;28;20631;-57
2023/04/13 02:42:58;;;;;;;4.77;0.70;;;;;;;5.97;79.15;97575.66;4972468;28;20340;-55
2023/04/13 02:45:26;;;;;;;7.13;1.43;;;;;;;5.86;78.62;97563.75;4980246;28;20237;-55
2023/04/13 02:47:53;;;;;;;7.00;0.70;;;;;;;5.80;79.87;97583.31;4993376;28;20217;-57
2023/04/13 02:50:21;;;;;;;6.57;0.80;;;;;;;5.78;80.06;97584.38;4978412;28;20266;-57
2023/04/13 02:52:57;;;;;;;3.10;0.80;;;;;;;5.90;78.52;97588.41;4978262;28;20281;-56
2023/04/13 02:55:23;;;;;;;3.03;0.70;;;;;;;5.93;79.07;97585.53;4994353;28;20233;-56
2023/04/13 02:58:00;;;;;;;2.13;0.60;;;;;;;5.91;79.47;97577.09;4975332;28;20233;-57
2023/04/13 03:00:27;;;;;;;4.97;0.87;;;;;;;6.01;78.63;97590.81;4990709;28;20233;-57
2023/04/13 03:02:58;;;;;;;3.73;0.83;;;;;;;6.04;78.65;97597.47;4974716;28;20240;-57
2023/04/13 03:05:32;;;;;;;2.67;0.70;;;;;;;6.06;78.29;97590.34;4977595;28;20216;-57
2023/04/13 03:08:00;;;;;;;3.83;0.80;;;;;;;6.07;77.98;97591.19;4972977;28;20229;-58
2023/04/13 03:10:30;;;;;;;4.07;0.90;;;;;;;6.07;78.27;97593.78;4992605;28;20797;-55
2023/04/13 03:12:57;;;;;;;5.53;0.80;;;;;;;6.05;78.34;97606.88;4972395;28;20236;-55
2023/04/13 03:15:25;;;;;;;5.87;1.07;;;;;;;6.08;76.58;97579.88;4977686;28;20542;-54
2023/04/13 03:17:53;;;;;;;2.47;0.70;;;;;;;6.10;78.33;97577.94;4975938;28;20703;-56
2023/04/13 03:20:24;;;;;;;4.33;0.80;;;;;;;6.15;77.27;97580.91;4981079;28;20699;-56
2023/04/13 03:22:57;;;;;;;3.60;0.63;;;;;;;6.20;77.53;97586.44;4976500;28;20232;-57
2023/04/13 03:25:24;;;;;;;5.60;0.80;;;;;;;6.20;76.06;97584.66;4980848;28;20225;-55
2023/04/13 03:27:51;;;;;;;7.83;0.87;;;;;;;6.23;76.38;97587.91;4980412;28;20286;-56
2023/04/13 03:33:02;;;;;;;2.73;0.80;;;;;;;6.20;79.22;97584.66;5062217;22;20306;-64
2023/04/13 03:35:33;;;;;;;2.20;0.60;;;;;;;6.22;77.29;97596.66;5034093;28;20247;-64
2023/04/13 03:38:04;;;;;;;2.83;0.70;;;;;;;6.25;77.54;97591.19;5013410;28;20234;-64
2023/04/13 03:40:35;;;;;;;7.50;0.70;;;;;;;6.26;76.56;97595.41;5020369;28;20235;-64
2023/04/13 03:43:02;;;;;;;1.80;0.80;;;;;;;6.23;77.53;97596.53;5025982;28;20328;-64
2023/04/13 03:45:32;;;;;;;3.03;0.97;;;;;;;6.26;75.53;97598.81;5025380;28;20235;-64
2023/04/13 03:48:01;;;;;;;10.23;1.20;;;;;;;6.26;75.16;97585.88;5022201;28;20289;-64
2023/04/13 03:50:28;;;;;;;6.97;1.13;;;;;;;6.28;77.66;97583.09;5033647;28;20241;-63
2023/04/13 03:52:56;;;;;;;1.27;0.53;;;;;;;6.31;75.94;97588.81;5009007;28;20235;-64
2023/04/13 03:55:24;;;;;;;3.93;0.73;;;;;;;6.32;75.81;97593.03;5014706;28;20917;-64
2023/04/13 03:57:54;;;;;;;7.63;0.70;;;;;;;6.37;75.66;97594.34;5025491;28;20723;-64
2023/04/13 04:00:25;;;;;;;5.13;0.90;;;;;;;6.42;73.94;97584.34;5022714;28;20235;-64
2023/04/13 04:03:05;;;;;;;5.97;1.07;;;;;;;6.43;75.67;97602.34;5013338;28;20297;-63
2023/04/13 04:05:41;;;;;;;6.33;1.00;;;;;;;6.39;74.83;97595.00;5009253;28;20705;-63
2023/04/13 04:08:08;;;;;;;7.20;1.63;;;;;;;6.37;75.03;97591.75;5022859;28;20230;-63
2023/04/13 04:10:38;;;;;;;4.57;0.87;;;;;;;6.40;74.71;97591.44;4998357;28;20235;-63
2023/04/13 04:13:04;;;;;;;9.07;1.43;;;;;;;6.40;73.91;97602.66;5023697;28;20284;-63
2023/04/13 04:15:35;;;;;;;8.02;1.40;;;;;;;6.49;73.47;97599.16;5027354;28;20523;-63
2023/04/13 04:18:06;;;;;;;35.10;15.97;;;;;;;6.48;74.83;97605.31;5022596;28;20216;-63
2023/04/13 04:20:33;;;;;;;6.37;1.10;;;;;;;6.42;74.66;97599.91;5008054;28;20231;-63
2023/04/13 04:23:03;;;;;;;5.50;1.17;;;;;;;6.46;73.32;97601.22;5023361;28;20234;-63
2023/04/13 04:25:36;;;;;;;5.13;1.50;;;;;;;6.47;73.85;97597.66;5025316;28;20232;-63
2023/04/13 04:28:05;;;;;;;8.33;4.80;;;;;;;6.42;74.19;97599.91;5022303;28;20228;-63
2023/04/13 04:30:32;;;;;;;5.90;1.17;;;;;;;6.38;76.16;97611.53;5011895;28;20307;-63
2023/04/13 04:33:00;;;;;;;5.17;1.83;;;;;;;6.40;74.68;97610.44;4994908;28;20228;-64
2023/04/13 04:35:34;;;;;;;8.63;2.27;;;;;;;6.42;74.42;97611.09;5009950;28;20389;-64
2023/04/13 04:38:03;;;;;;;5.40;1.90;;;;;;;6.40;74.49;97615.63;5023331;28;20219;-64
2023/04/13 04:40:34;;;;;;;11.23;2.47;;;;;;;6.37;74.65;97612.50;5018220;28;20722;-63
2023/04/13 04:43:03;;;;;;;9.67;1.57;;;;;;;6.38;75.25;97627.91;5009342;28;20306;-63
2023/04/13 04:45:40;;;;;;;4.33;1.00;;;;;;;6.44;73.97;97623.88;5017073;28;20216;-63
2023/04/13 04:48:07;;;;;;;5.67;0.93;;;;;;;6.44;74.66;97622.13;5006312;28;20324;-63
2023/04/13 04:50:36;;;;;;;4.60;1.30;;;;;;;6.46;73.51;97624.56;5020989;28;20237;-63
2023/04/13 04:53:09;;;;;;;6.77;1.40;;;;;;;6.43;74.27;97635.22;5007805;28;20313;-63
2023/04/13 04:55:36;;;;;;;6.70;1.10;;;;;;;6.47;73.41;97634.78;5028323;28;20227;-63
2023/04/13 04:58:03;;;;;;;5.47;1.43;;;;;;;6.43;74.28;97628.28;5007272;28;20220;-63
2023/04/13 05:00:31;;;;;;;6.07;1.73;;;;;;;6.43;75.64;97633.47;5020931;28;20305;-63
2023/04/13 05:03:06;;;;;;;6.53;1.40;;;;;;;6.43;75.65;97651.59;5015276;28;20265;-63
2023/04/13 05:05:34;;;;;;;6.40;1.50;;;;;;;6.43;75.22;97651.59;5013043;28;20233;-63
2023/04/13 05:08:06;;;;;;;5.20;1.23;;;;;;;6.43;76.13;97656.78;5008683;28;20894;-63
2023/04/13 05:10:44;;;;;;;4.80;1.00;;;;;;;6.43;74.50;97655.97;5028170;28;20354;-63
2023/04/13 05:13:10;;;;;;;5.17;1.00;;;;;;;6.49;75.76;97668.31;5005504;28;20231;-63
2023/04/13 05:15:37;;;;;;;7.70;1.30;;;;;;;6.51;75.46;97663.81;5021917;28;20298;-64
2023/04/13 05:18:06;;;;;;;11.50;1.13;;;;;;;6.48;76.99;97664.94;5024874;28;20751;-63
2023/04/13 05:20:34;;;;;;;9.23;1.27;;;;;;;6.43;77.33;97671.50;5026700;28;20223;-63
2023/04/13 05:23:04;;;;;;;6.43;1.00;;;;;;;6.46;75.31;97673.81;5023874;28;20310;-63
2023/04/13 05:25:35;;;;;;;7.00;1.40;;;;;;;6.50;75.51;97686.34;5022806;28;20690;-63
2023/04/13 05:28:06;;;;;;;5.77;0.87;;;;;;;6.47;77.83;97691.00;5022764;28;20222;-63
2023/04/13 05:30:34;;;;;;;5.87;0.90;;;;;;;6.48;77.34;97684.84;5027579;28;20226;-63
2023/04/13 05:33:04;;;;;;;3.30;1.03;;;;;;;6.49;79.03;97682.13;5020450;28;20232;-63
2023/04/13 05:35:32;;;;;;;7.03;1.20;;;;;;;6.55;77.90;97693.66;5027169;28;20226;-63
2023/04/13 05:38:00;;;;;;;4.83;1.10;;;;;;;6.58;77.31;97690.78;5009236;28;20274;-63
2023/04/13 05:40:33;;;;;;;3.70;1.37;;;;;;;6.68;77.00;97689.88;5020034;28;20582;-63
2023/04/13 05:43:01;;;;;;;7.73;1.90;;;;;;;6.73;75.28;97695.44;5015034;28;20231;-63
2023/04/13 05:45:31;;;;;;;5.07;1.10;;;;;;;6.87;76.23;97694.91;5021889;28;20559;-63
2023/04/13 05:48:06;;;;;;;5.90;1.03;;;;;;;7.06;75.70;97685.31;5024198;28;20230;-63
2023/04/13 05:50:34;;;;;;;3.93;0.77;;;;;;;7.18;75.38;97704.88;5022490;28;20236;-63
2023/04/13 05:53:01;;;;;;;5.23;0.80;;;;;;;7.26;72.97;97711.09;5001851;28;20242;-63
2023/04/13 05:55:35;;;;;;;5.67;0.77;;;;;;;7.20;72.04;97713.34;5020166;28;20256;-63
2023/04/13 05:58:04;;;;;;;8.37;3.27;;;;;;;7.13;73.56;97727.03;5014247;28;21139;-63
2023/04/13 06:00:31;;;;;;;13.80;5.03;;;;;;;7.16;73.68;97717.19;5018896;28;20726;-63
2023/04/13 06:03:04;;;;;;;19.10;7.03;;;;;;;7.34;73.37;97713.75;5003477;28;20220;-63
2023/04/13 06:05:32;;;;;;;13.97;1.73;;;;;;;7.59;72.11;97714.69;5016772;28;20695;-63
2023/04/13 06:08:01;;;;;;;10.00;1.20;;;;;;;7.63;73.16;97715.19;5005592;28;20232;-62
2023/04/13 06:10:27;;;;;;;7.20;1.70;;;;;;;7.82;71.05;97714.16;5035999;28;20234;-62
2023/04/13 06:12:54;;;;;;;12.33;2.17;;;;;;;7.94;69.86;97725.06;5028072;28;20230;-62
2023/04/13 06:15:23;;;;;;;14.87;3.87;;;;;;;7.64;70.83;97727.19;5004533;28;20236;-62
2023/04/13 06:17:51;;;;;;;6.30;2.07;;;;;;;8.05;71.55;97723.97;5033150;28;20775;-62
2023/04/13 06:20:18;;;;;;;5.20;1.30;;;;;;;7.99;70.00;97712.44;5014508;28;20256;-62
2023/04/13 06:22:45;;;;;;;6.77;1.10;;;;;;;7.88;70.59;97717.91;5029008;28;20237;-62
2023/04/13 06:25:15;;;;;;;7.87;1.60;;;;;;;7.83;71.75;97711.38;5028300;28;20723;-62
2023/04/13 06:27:43;;;;;;;8.20;1.30;;;;;;;7.61;71.18;97717.13;5020360;28;20299;-62
2023/04/13 06:30:11;;;;;;;4.07;1.00;;;;;;;7.74;71.92;97714.91;5013733;28;20241;-62
2023/04/13 06:32:38;;;;;;;8.33;1.10;;;;;;;7.82;71.32;97714.16;5017896;28;20227;-62
2023/04/13 06:35:06;;;;;;;6.10;1.40;;;;;;;8.03;70.53;97718.94;5023542;28;20715;-62
2023/04/13 06:37:39;;;;;;;15.87;6.37;;;;;;;7.95;70.58;97719.72;5015438;28;20710;-62
2023/04/13 06:40:11;;;;;;;8.93;2.40;;;;;;;7.74;71.57;97714.13;5014265;28;20224;-62
2023/04/13 06:42:42;;;;;;;7.33;1.63;;;;;;;7.78;71.47;97720.63;5023083;28;20227;-62
2023/04/13 06:45:32;;;;;;;6.73;1.87;;;;;;;7.71;71.75;97728.22;5036837;28;20225;-62
2023/04/13 06:48:01;;;;;;;6.80;1.63;;;;;;;7.50;73.16;97721.59;5028432;28;20226;-62
2023/04/13 06:50:30;;;;;;;6.43;1.67;;;;;;;7.50;72.22;97718.22;5014896;28;20238;-62
2023/04/13 06:53:00;;;;;;;5.27;1.97;;;;;;;7.63;71.40;97721.22;5004726;28;20224;-62
2023/04/13 06:55:27;;;;;;;6.13;1.40;;;;;;;7.74;70.82;97732.31;5018056;28;20250;-62
2023/04/13 06:57:55;;;;;;;5.23;1.37;;;;;;;7.51;70.93;97720.63;5036188;28;20703;-62
2023/04/13 07:00:21;;;;;;;9.13;1.53;;;;;;;7.62;71.49;97723.94;5019856;28;20658;-62
2023/04/13 07:02:48;;;;;;;7.90;1.90;;;;;;;7.74;72.73;97725.31;5021301;28;20235;-62
2023/04/13 07:05:17;;;;;;;8.50;1.60;;;;;;;7.85;72.93;97731.22;5018893;28;20236;-62
2023/04/13 07:07:48;;;;;;;6.37;1.30;;;;;;;8.04;71.77;97727.53;5028521;28;20211;-63
2023/04/13 07:10:15;;;;;;;8.20;1.63;;;;;;;8.16;70.08;97720.28;5017975;28;20228;-62
2023/04/13 07:12:42;;;;;;;12.20;6.23;;;;;;;8.33;71.74;97732.38;5006554;28;20247;-62
2023/04/13 07:15:11;;;;;;;9.10;4.60;;;;;;;8.45;70.02;97721.66;4996769;28;20229;-62
2023/04/13 07:17:42;;;;;;;9.17;3.40;;;;;;;8.33;71.25;97732.38;5026390;28;20251;-62
2023/04/13 07:20:12;;;;;;;6.13;2.30;;;;;;;8.44;69.66;97733.03;5004714;28;20367;-62
2023/04/13 07:22:39;;;;;;;5.73;1.30;;;;;;;8.42;69.81;97731.41;5005531;28;20720;-62
2023/04/13 07:25:06;;;;;;;9.30;2.30;;;;;;;8.48;68.76;97736.97;5027004;28;20212;-62
2023/04/13 07:27:33;;;;;;;5.10;1.00;;;;;;;8.55;68.73;97733.56;5023678;28;20237;-62
2023/04/13 07:30:00;;;;;;;4.10;1.33;;;;;;;8.78;67.58;97734.72;5006091;28;20230;-62
2023/04/13 07:32:35;;;;;;;6.50;1.67;;;;;;;8.67;70.02;97741.88;5006305;28;20271;-62
2023/04/13 07:35:02;;;;;;;6.63;2.27;;;;;;;8.92;67.23;97730.69;5015287;28;20221;-62
2023/04/13 07:37:33;;;;;;;9.27;2.13;;;;;;;9.09;69.01;97727.09;5012146;28;20228;-62
2023/04/13 07:39:59;;;;;;;8.17;1.63;;;;;;;9.05;67.43;97738.81;5012924;28;20222;-63
2023/04/13 07:42:28;;;;;;;8.53;1.50;;;;;;;8.84;69.72;97740.13;5026685;28;20331;-63
2023/04/13 07:44:55;;;;;;;10.20;1.90;;;;;;;8.99;68.85;97752.50;5026650;28;20221;-63
2023/04/13 07:47:22;;;;;;;11.13;1.43;;;;;;;8.70;68.38;97738.97;5012622;28;20320;-63
2023/04/13 07:49:50;;;;;;;8.17;3.07;;;;;;;8.96;67.24;97730.19;5011188;28;20223;-64
2023/04/13 07:52:20;;;;;;;6.27;1.50;;;;;;;9.13;67.49;97736.19;5013134;28;20278;-64
2023/04/13 07:54:48;;;;;;;5.13;1.20;;;;;;;9.55;67.21;97733.56;5014750;28;20279;-64
2023/04/13 07:57:16;;;;;;;7.90;1.43;;;;;;;9.14;66.13;97730.03;5023365;28;20315;-64
2023/04/13 07:59:48;;;;;;;5.20;1.27;;;;;;;9.49;64.14;97735.03;5033667;28;20681;-64
2023/04/13 08:02:16;;;;;;;4.33;1.10;;;;;;;9.24;64.80;97729.03;4988922;28;20262;-64
2023/04/13 08:04:45;;;;;;;8.63;1.37;;;;;;;9.38;66.63;97730.97;5011097;28;20327;-64
2023/04/13 08:07:19;;;;;;;5.93;1.90;;;;;;;9.86;66.48;97736.22;5025550;28;20244;-64
2023/04/13 08:09:48;;;;;;;11.87;1.40;;;;;;;9.96;64.55;97736.06;5028680;28;20280;-64
2023/04/13 08:12:15;;;;;;;7.53;1.43;;;;;;;9.26;65.33;97748.75;5024724;28;20727;-64
2023/04/13 08:14:42;;;;;;;6.60;1.50;;;;;;;9.82;64.38;97740.16;5043841;28;20803;-64
2023/04/13 08:17:10;;;;;;;7.80;1.67;;;;;;;9.82;64.00;97749.78;5006876;28;20229;-62
2023/04/13 08:19:38;;;;;;;5.33;1.70;;;;;;;9.68;64.71;97746.88;5020335;28;20300;-63
2023/04/13 08:22:05;;;;;;;8.00;1.60;;;;;;;9.60;65.23;97749.50;5006215;28;20234;-62
2023/04/13 08:24:32;;;;;;;9.97;1.60;;;;;;;9.52;66.49;97754.72;5020491;28;20236;-63
2023/04/13 08:26:59;;;;;;;7.40;1.30;;;;;;;9.33;65.04;97753.31;5024752;28;20224;-63
2023/04/13 08:29:26;;;;;;;10.80;1.67;;;;;;;9.24;66.94;97749.88;5017631;28;20572;-63
2023/04/13 08:31:55;;;;;;;8.60;1.70;;;;;;;9.03;67.26;97755.56;5020013;28;20728;-63
2023/04/13 08:34:22;;;;;;;7.57;1.50;;;;;;;8.88;67.13;97760.63;5018008;28;20238;-63
2023/04/13 08:36:49;;;;;;;7.53;1.30;;;;;;;9.39;66.38;97758.66;5012172;28;20316;-63
2023/04/13 08:39:16;;;;;;;7.43;1.60;;;;;;;9.54;68.48;97753.56;5021167;28;20867;-63
2023/04/13 08:41:47;;;;;;;9.93;1.73;;;;;;;9.39;64.59;97743.03;5006951;28;20231;-63
2023/04/13 08:44:16;;;;;;;5.83;1.30;;;;;;;9.61;65.89;97743.31;5003901;28;20307;-63
2023/04/13 08:46:46;;;;;;;9.40;1.50;;;;;;;9.81;61.78;97741.13;5009273;28;20258;-63
2023/04/13 08:49:15;;;;;;;6.23;1.37;;;;;;;9.72;64.19;97750.78;5005188;28;20234;-63
2023/04/13 08:52:17;;;;;;;7.33;1.40;;;;;;;9.87;63.21;97753.50;5011609;28;20338;-63
2023/04/13 08:54:48;;;;;;;9.87;1.47;;;;;;;10.24;63.37;97748.63;5023520;28;20276;-63
2023/04/13 08:57:21;;;;;;;7.63;1.40;;;;;;;10.39;61.15;97753.97;5025162;28;20724;-63
2023/04/13 08:59:51;;;;;;;7.83;1.63;;;;;;;10.14;64.00;97761.06;5003034;28;20272;-63
2023/04/13 09:02:22;;;;;;;7.00;1.27;;;;;;;9.90;64.19;97762.78;5001898;28;20245;-63
2023/04/13 09:04:54;;;;;;;13.50;1.70;;;;;;;10.06;63.17;97750.69;5023701;28;20225;-63
2023/04/13 09:07:25;;;;;;;10.53;1.83;;;;;;;10.25;61.60;97749.44;5021326;28;20640;-63
2023/04/13 09:09:58;;;;;;;12.97;2.83;;;;;;;10.17;62.17;97750.28;5005250;28;20612;-63
2023/04/13 09:12:27;;;;;;;9.27;1.70;;;;;;;10.06;63.69;97751.47;5020786;28;20241;-63
2023/04/13 09:14:54;;;;;;;8.50;1.80;;;;;;;10.08;63.04;97746.91;5026680;28;20631;-63
2023/04/13 09:17:25;;;;;;;9.30;2.23;;;;;;;9.58;62.75;97760.06;5014218;28;20349;-63
2023/04/13 09:19:56;;;;;;;10.30;1.73;;;;;;;9.89;61.97;97759.34;5040228;28;20221;-63
2023/04/13 09:22:24;;;;;;;15.03;2.43;;;;;;;9.90;64.23;97747.94;5025834;28;20234;-63
2023/04/13 09:24:53;;;;;;;9.40;1.77;;;;;;;10.25;65.21;97747.63;5036415;28;20218;-63
2023/04/13 09:27:22;;;;;;;8.63;1.97;;;;;;;10.07;65.92;97750.50;5031630;28;20224;-63
2023/04/13 09:29:51;;;;;;;8.43;2.47;;;;;;;10.35;63.25;97755.28;5025831;28;20228;-63
2023/04/13 09:32:22;;;;;;;15.23;5.63;;;;;;;10.30;62.06;97747.16;5030965;28;20263;-63
2023/04/13 09:35:03;;;;;;;16.17;4.33;;;;;;;10.16;64.87;97764.31;5025077;28;20233;-63
2023/04/13 09:37:31;;;;;;;13.63;3.53;;;;;;;10.11;69.25;97766.59;5027254;28;20242;-63
2023/04/13 09:40:08;;;;;;;9.83;2.13;;;;;;;9.97;70.02;97776.78;5025922;28;20779;-63
2023/04/13 09:42:35;;;;;;;4.97;1.50;;;;;;;9.58;67.69;97791.34;5024166;28;20621;-63
2023/04/13 09:45:03;;;;;;;8.63;1.50;;;;;;;8.93;70.87;97784.38;5039527;28;20226;-63
2023/04/13 09:47:36;;;;;;;9.00;1.77;;;;;;;8.79;74.28;97793.63;5040878;28;20706;-63
2023/04/13 09:50:05;;;;;;;9.47;2.00;;;;;;;8.39;76.29;97786.34;5030257;28;20221;-63
2023/04/13 09:52:33;;;;;;;10.10;2.03;;;;;;;8.46;78.46;97788.31;5033732;28;20308;-63
2023/04/13 09:54:59;;;;;;;9.17;2.63;;;;;;;8.42;81.63;97809.44;5039579;28;20717;-63
2023/04/13 09:57:27;;;;;;;7.80;1.67;;;;;;;7.78;83.34;97788.19;5045481;28;20237;-63
2023/04/13 09:59:55;;;;;;;11.50;3.73;;;;;;;8.02;85.84;97786.66;5035122;28;20382;-63
2023/04/13 10:02:23;;;;;;;9.97;2.27;;;;;;;8.17;87.15;97800.69;5013028;28;20798;-63
2023/04/13 10:04:50;;;;;;;9.77;1.87;;;;;;;8.24;87.47;97811.31;5032771;28;20224;-63
2023/04/13 10:07:17;;;;;;;9.93;1.57;;;;;;;7.95;88.16;97802.88;5030699;28;20623;-63
2023/04/13 10:09:44;;;;;;;8.23;1.77;;;;;;;7.83;87.88;97801.53;5032144;28;20289;-63
2023/04/13 10:12:12;;;;;;;13.93;2.53;;;;;;;7.96;89.87;97806.28;5033051;28;20239;-63
2023/04/13 10:14:43;;;;;;;13.43;2.50;;;;;;;8.12;90.80;97802.94;5035717;28;20255;-63
2023/04/13 10:17:34;;;;;;;9.50;2.07;;;;;;;8.40;91.69;97800.97;5039573;28;20226;-63
2023/04/13 10:20:09;;;;;;;11.20;2.20;;;;;;;8.90;90.32;97797.72;5030506;28;20225;-63
2023/04/13 10:22:37;;;;;;;9.17;1.87;;;;;;;9.36;90.01;97799.84;5024397;28;20247;-63
2023/04/13 10:25:05;;;;;;;11.97;2.40;;;;;;;9.58;88.80;97801.75;5022011;28;20262;-63
2023/04/13 10:27:34;;;;;;;8.50;1.83;;;;;;;9.68;86.97;97803.38;5044191;28;20228;-63
2023/04/13 10:30:03;;;;;;;11.83;3.10;;;;;;;9.66;85.73;97815.75;5041071;28;20248;-63
2023/04/13 10:32:31;;;;;;;8.70;2.03;;;;;;;9.26;83.11;97811.25;5036289;28;20323;-63
2023/04/13 10:35:09;;;;;;;10.47;1.70;;;;;;;9.19;78.72;97818.06;5041880;28;20223;-63
2023/04/13 10:37:36;;;;;;;9.67;1.90;;;;;;;8.91;84.32;97807.94;5044479;28;20278;-63
2023/04/13 10:40:06;;;;;;;9.00;1.77;;;;;;;9.00;86.90;97803.59;5041132;28;20604;-64
2023/04/13 10:42:41;;;;;;;10.57;1.53;;;;;;;9.21;87.97;97810.91;5039089;28;20912;-64
2023/04/13 10:45:17;;;;;;;7.47;1.73;;;;;;;9.32;86.12;97803.75;5038865;28;20223;-64
2023/04/13 10:47:45;;;;;;;9.10;1.83;;;;;;;9.29;85.41;97797.91;5044306;28;20584;-64
2023/04/13 10:50:16;;;;;;;7.10;1.87;;;;;;;9.17;87.34;97801.78;5030092;28;20232;-64
2023/04/13 10:52:57;;;;;;;10.50;1.90;;;;;;;9.22;87.05;97796.91;5023811;28;20239;-64
2023/04/13 10:55:26;;;;;;;8.63;2.07;;;;;;;9.49;82.31;97802.78;5041788;28;20692;-62
2023/04/13 10:57:53;;;;;;;9.93;2.30;;;;;;;9.51;84.04;97792.19;5043409;28;20217;-62
2023/04/13 11:00:21;;;;;;;7.90;1.67;;;;;;;9.52;87.42;97799.00;5041441;28;20641;-62
2023/04/13 11:02:51;;;;;;;6.00;1.77;;;;;;;9.61;87.35;97792.81;5044112;28;20256;-62
2023/04/13 11:05:19;;;;;;;9.10;2.43;;;;;;;9.84;80.51;97794.75;5038516;28;20694;-62
2023/04/13 11:07:47;;;;;;;8.37;1.83;;;;;;;9.92;82.28;97786.91;5032247;28;20218;-63
2023/04/13 11:10:14;;;;;;;9.57;2.00;;;;;;;10.27;82.64;97790.00;5023767;28;20701;-63
2023/04/13 11:12:50;;;;;;;7.97;1.53;;;;;;;10.57;83.20;97792.84;5029192;28;20227;-63
2023/04/13 11:15:20;;;;;;;6.10;1.70;;;;;;;10.48;82.69;97788.66;5031698;28;23206;-63
2023/04/13 11:17:52;;;;;;;10.43;1.90;;;;;;;9.88;80.08;97788.22;5027506;28;20300;-63
2023/04/13 11:20:19;;;;;;;9.57;2.20;;;;;;;9.67;80.79;97779.13;5021249;28;20237;-63
2023/04/13 11:22:46;;;;;;;7.03;1.90;;;;;;;9.65;83.60;97785.47;5031069;28;20232;-63
2023/04/13 11:25:12;;;;;;;9.80;1.83;;;;;;;9.27;81.16;97780.78;5021662;28;20237;-63
2023/04/13 11:27:39;;;;;;;7.80;1.83;;;;;;;8.92;86.25;97782.75;5023295;28;20289;-63
2023/04/13 11:30:08;;;;;;;10.73;1.73;;;;;;;8.99;85.92;97781.94;5030731;28;20236;-63
2023/04/13 11:32:36;;;;;;;9.00;2.77;;;;;;;8.98;85.52;97782.09;5029914;28;20233;-63
2023/04/13 11:35:08;;;;;;;5.63;1.43;;;;;;;8.97;89.03;97778.69;5038433;28;20224;-63
2023/04/13 11:37:36;;;;;;;7.87;1.80;;;;;;;9.07;89.64;97781.09;5030559;28;20284;-63
2023/04/13 11:40:09;;;;;;;4.83;1.90;;;;;;;9.03;86.38;97785.00;5038677;28;20224;-63
2023/04/13 11:42:38;;;;;;;8.60;1.50;;;;;;;9.25;86.66;97770.56;5043519;28;20698;-63
2023/04/13 11:45:07;;;;;;;6.37;1.53;;;;;;;9.28;84.14;97774.59;5032220;28;20235;-63
2023/04/13 11:47:34;;;;;;;7.67;1.60;;;;;;;9.67;85.45;97762.66;5035666;28;20695;-63
2023/04/13 11:50:02;;;;;;;5.67;1.67;;;;;;;10.28;86.95;97760.34;5041061;28;20229;-63
2023/04/13 11:52:31;;;;;;;6.50;1.77;;;;;;;10.65;81.35;97754.63;5043660;28;20234;-63